Time;durP1;ratioP1;P1;durP2;ratioP2;P2;SDS_P1;SDS_P2;PMS_P1;PMS_P2;Temp;Humidity;BMP_temperature;BMP_pressure;BME280_temperature;BME280_humidity;BME280_pressure;Samples;Min_cycle;Max_cycle;Signal;HPM_P1;HPM_P2
2022/01/15 00:00:21;;;;;;;29.87;8.10;;;;;;;;;;5043587;28;20464;-85
2022/01/15 00:02:49;;;;;;;25.60;7.60;;;;;;;;;;5038637;28;21033;-85
2022/01/15 00:05:15;;;;;;;40.07;8.40;;;;;;;;;;5039030;28;20490;-85
2022/01/15 00:07:42;;;;;;;53.53;10.07;;;;;;;;;;5037389;28;20953;-85
2022/01/15 00:10:09;;;;;;;28.77;6.43;;;;;;;;;;5041504;28;20485;-85
2022/01/15 00:12:40;;;;;;;47.47;8.50;;;;;;;;;;5038443;28;20526;-85
2022/01/15 00:15:07;;;;;;;56.97;9.50;;;;;;;;;;5041485;28;20480;-85
2022/01/15 00:17:45;;;;;;;40.57;9.13;;;;;;;;;;5039402;28;20490;-85
2022/01/15 00:20:16;;;;;;;30.90;7.63;;;;;;;;;;5042682;28;20536;-85
2022/01/15 00:22:42;;;;;;;23.73;7.50;;;;;;;;;;5040809;28;20476;-85
2022/01/15 00:25:09;;;;;;;27.90;7.17;;;;;;;;;;5040121;28;20607;-85
2022/01/15 00:27:35;;;;;;;15.87;6.00;;;;;;;;;;5039509;28;20480;-85
2022/01/15 00:30:02;;;;;;;25.77;6.60;;;;;;;;;;5040837;28;20566;-85
2022/01/15 00:32:28;;;;;;;48.60;9.00;;;;;;;;;;5039566;28;20484;-85
2022/01/15 00:34:55;;;;;;;23.37;7.13;;;;;;;;;;5041191;28;20456;-85
2022/01/15 00:37:22;;;;;;;12.33;6.30;;;;;;;;;;5040741;28;20477;-85
2022/01/15 00:39:49;;;;;;;16.70;6.10;;;;;;;;;;5038606;28;20869;-85
2022/01/15 00:42:15;;;;;;;26.17;6.20;;;;;;;;;;5039264;28;20473;-85
2022/01/15 00:44:42;;;;;;;25.70;6.03;;;;;;;;;;5041061;28;20451;-85
2022/01/15 00:47:08;;;;;;;17.97;7.70;;;;;;;;;;5042106;28;20507;-85
2022/01/15 00:49:34;;;;;;;40.03;7.60;;;;;;;;;;5043648;28;20487;-85
2022/01/15 00:52:01;;;;;;;32.47;8.33;;;;;;;;;;5043732;28;20506;-85
2022/01/15 00:54:28;;;;;;;24.70;6.17;;;;;;;;;;5044958;28;21008;-85
2022/01/15 00:56:54;;;;;;;23.77;6.93;;;;;;;;;;5046540;28;20476;-85
2022/01/15 00:59:21;;;;;;;29.73;7.43;;;;;;;;;;5047798;28;20456;-85
2022/01/15 01:01:47;;;;;;;7.97;4.30;;;;;;;;;;5047457;28;21081;-85
2022/01/15 01:04:13;;;;;;;10.77;5.87;;;;;;;;;;5047391;28;20456;-85
2022/01/15 01:06:39;;;;;;;37.93;7.37;;;;;;;;;;5047993;28;20522;-85
2022/01/15 01:09:06;;;;;;;53.67;7.53;;;;;;;;;;5046872;28;20558;-85
2022/01/15 01:11:44;;;;;;;21.60;5.27;;;;;;;;;;5053290;28;21051;-85
2022/01/15 01:20:08;;;;;;;37.00;6.57;;;;;;;;;;5060799;28;20422;-85
2022/01/15 01:25:32;;;;;;;29.70;5.47;;;;;;;;;;5041508;28;20450;-85
2022/01/15 01:28:06;;;;;;;32.93;6.27;;;;;;;;;;5064202;28;20466;-84
2022/01/15 01:30:38;;;;;;;33.53;6.50;;;;;;;;;;5061496;28;20490;-85
2022/01/15 01:33:16;;;;;;;13.40;4.33;;;;;;;;;;5062144;28;20473;-85
2022/01/15 01:35:46;;;;;;;49.43;7.40;;;;;;;;;;5062866;28;20476;-85
2022/01/15 01:38:19;;;;;;;49.50;7.00;;;;;;;;;;5063849;28;20466;-85
2022/01/15 01:40:49;;;;;;;50.50;7.90;;;;;;;;;;5061196;28;20452;-84
2022/01/15 01:46:14;;;;;;;15.33;4.50;;;;;;;;;;5063736;28;20512;-85
2022/01/15 01:48:41;;;;;;;10.80;3.93;;;;;;;;;;5062850;28;20488;-85
2022/01/15 01:51:07;;;;;;;85.53;9.57;;;;;;;;;;5063139;28;20487;-85
2022/01/15 01:53:34;;;;;;;22.43;4.23;;;;;;;;;;5064316;28;20487;-86
2022/01/15 01:56:00;;;;;;;61.13;7.10;;;;;;;;;;5059729;28;20472;-85
2022/01/15 01:58:28;;;;;;;12.27;4.50;;;;;;;;;;5062427;28;20447;-85
2022/01/15 02:00:54;;;;;;;34.77;6.13;;;;;;;;;;5060557;28;20460;-85
2022/01/15 02:03:20;;;;;;;40.43;7.80;;;;;;;;;;5062932;28;20506;-85
2022/01/15 02:05:46;;;;;;;50.90;7.27;;;;;;;;;;5059988;28;20456;-84
2022/01/15 02:08:13;;;;;;;17.77;5.00;;;;;;;;;;5061261;28;20455;-85
2022/01/15 02:10:40;;;;;;;21.80;6.73;;;;;;;;;;5059844;28;20487;-85
2022/01/15 02:13:08;;;;;;;42.63;8.27;;;;;;;;;;5062129;28;20477;-85
2022/01/15 02:15:36;;;;;;;14.67;5.90;;;;;;;;;;5061901;28;21051;-85
2022/01/15 02:18:03;;;;;;;30.83;5.90;;;;;;;;;;5061397;28;20558;-85
2022/01/15 02:25:59;;;;;;;21.50;6.27;;;;;;;;;;5060694;28;21054;-85
2022/01/15 02:28:26;;;;;;;12.10;4.83;;;;;;;;;;5058484;28;21047;-85
2022/01/15 02:30:53;;;;;;;12.03;6.40;;;;;;;;;;5059520;28;20466;-85
2022/01/15 02:33:21;;;;;;;18.70;5.90;;;;;;;;;;5055247;28;20444;-84
2022/01/15 02:35:49;;;;;;;32.87;6.93;;;;;;;;;;5058416;28;20450;-85
2022/01/15 02:38:15;;;;;;;36.07;7.40;;;;;;;;;;5063257;22;20503;-84
2022/01/15 02:40:43;;;;;;;21.17;7.27;;;;;;;;;;5044991;28;20503;-83
2022/01/15 02:43:12;;;;;;;11.40;7.23;;;;;;;;;;5043895;28;20495;-83
2022/01/15 02:45:42;;;;;;;12.97;6.13;;;;;;;;;;5042866;28;20459;-83
2022/01/15 02:48:10;;;;;;;16.47;6.93;;;;;;;;;;5052491;28;20480;-84
2022/01/15 02:50:37;;;;;;;15.43;8.27;;;;;;;;;;5058150;28;20487;-79
2022/01/15 02:53:05;;;;;;;69.43;11.23;;;;;;;;;;5058579;28;20444;-82
2022/01/15 02:55:31;;;;;;;38.53;9.27;;;;;;;;;;5060653;28;20452;-81
2022/01/15 02:57:58;;;;;;;21.40;8.30;;;;;;;;;;5057849;28;20493;-81
2022/01/15 03:00:24;;;;;;;30.23;8.90;;;;;;;;;;5057180;28;20447;-81
2022/01/15 03:02:51;;;;;;;24.43;7.70;;;;;;;;;;5059088;28;20501;-81
2022/01/15 03:05:17;;;;;;;23.77;8.60;;;;;;;;;;5059435;28;20508;-81
2022/01/15 03:07:44;;;;;;;29.80;8.97;;;;;;;;;;5059708;28;21000;-82
2022/01/15 03:10:11;;;;;;;40.27;8.87;;;;;;;;;;5059770;28;20479;-81
2022/01/15 03:12:38;;;;;;;33.70;9.00;;;;;;;;;;5058027;28;20532;-82
2022/01/15 03:15:05;;;;;;;18.37;6.80;;;;;;;;;;5058630;28;20459;-83
2022/01/15 03:17:31;;;;;;;20.83;6.30;;;;;;;;;;5053270;28;21546;-80
2022/01/15 03:19:58;;;;;;;13.07;7.67;;;;;;;;;;5059308;28;20450;-81
2022/01/15 03:22:24;;;;;;;12.60;6.80;;;;;;;;;;5059491;28;21071;-81
2022/01/15 03:24:51;;;;;;;14.63;6.63;;;;;;;;;;5059199;28;20883;-83
2022/01/15 03:27:21;;;;;;;17.00;6.13;;;;;;;;;;5060328;28;21010;-85
2022/01/15 03:29:47;;;;;;;20.63;6.23;;;;;;;;;;5055517;28;21087;-81
2022/01/15 03:32:13;;;;;;;11.13;6.20;;;;;;;;;;5054460;28;20901;-82
2022/01/15 03:34:40;;;;;;;10.07;5.73;;;;;;;;;;5059294;28;20447;-81
2022/01/15 03:37:06;;;;;;;11.40;5.57;;;;;;;;;;5058183;28;20476;-81
2022/01/15 03:39:33;;;;;;;18.80;7.77;;;;;;;;;;5057330;28;20444;-80
2022/01/15 03:41:59;;;;;;;14.60;6.67;;;;;;;;;;5059180;28;21064;-81
2022/01/15 03:44:27;;;;;;;16.53;6.90;;;;;;;;;;5059485;28;20869;-80
2022/01/15 03:46:53;;;;;;;14.27;6.20;;;;;;;;;;5058375;28;21015;-82
2022/01/15 03:49:19;;;;;;;12.77;7.60;;;;;;;;;;5055906;28;20893;-83
2022/01/15 03:51:46;;;;;;;20.73;8.90;;;;;;;;;;5057717;28;20680;-82
2022/01/15 03:54:12;;;;;;;12.50;6.20;;;;;;;;;;5057089;28;20443;-81
2022/01/15 03:56:38;;;;;;;15.27;8.60;;;;;;;;;;5057978;28;20514;-81
2022/01/15 03:59:04;;;;;;;10.77;6.10;;;;;;;;;;5059252;28;20490;-80
2022/01/15 04:01:32;;;;;;;22.10;8.70;;;;;;;;;;5058954;28;20483;-80
2022/01/15 04:03:58;;;;;;;18.13;7.40;;;;;;;;;;5056555;28;20506;-81
2022/01/15 04:06:24;;;;;;;17.30;8.17;;;;;;;;;;5054621;28;20468;-82
2022/01/15 04:08:51;;;;;;;27.33;10.50;;;;;;;;;;5056469;28;21294;-80
2022/01/15 04:11:17;;;;;;;18.57;9.80;;;;;;;;;;5059581;28;20475;-81
2022/01/15 04:13:43;;;;;;;21.63;9.70;;;;;;;;;;5057288;28;20460;-81
2022/01/15 04:16:09;;;;;;;28.83;10.90;;;;;;;;;;5056909;28;20463;-81
2022/01/15 04:18:40;;;;;;;17.80;9.57;;;;;;;;;;5059744;28;20472;-81
2022/01/15 04:21:09;;;;;;;32.87;10.30;;;;;;;;;;5058581;28;20989;-82
2022/01/15 04:23:35;;;;;;;18.50;9.63;;;;;;;;;;5056066;28;20554;-82
2022/01/15 04:26:01;;;;;;;30.30;9.53;;;;;;;;;;5059823;28;20467;-80
2022/01/15 04:28:29;;;;;;;26.03;10.23;;;;;;;;;;5061299;28;20892;-81
2022/01/15 04:30:55;;;;;;;28.10;10.50;;;;;;;;;;5062379;28;20985;-81
2022/01/15 04:33:21;;;;;;;29.63;11.60;;;;;;;;;;5061283;28;20512;-83
2022/01/15 04:35:49;;;;;;;23.83;10.93;;;;;;;;;;5062317;28;20447;-81
2022/01/15 04:38:15;;;;;;;32.90;10.80;;;;;;;;;;5061555;28;20535;-81
2022/01/15 04:40:41;;;;;;;20.67;10.63;;;;;;;;;;5060414;28;20455;-80
2022/01/15 04:43:07;;;;;;;16.33;9.60;;;;;;;;;;5063108;28;20459;-83
2022/01/15 04:45:34;;;;;;;33.07;10.47;;;;;;;;;;5063112;28;20868;-82
2022/01/15 04:48:00;;;;;;;27.97;11.27;;;;;;;;;;5063126;28;20471;-83
2022/01/15 04:50:26;;;;;;;25.70;11.80;;;;;;;;;;5062767;28;20830;-82
2022/01/15 04:52:54;;;;;;;26.90;11.60;;;;;;;;;;5063807;28;20523;-82
2022/01/15 04:55:20;;;;;;;19.63;10.80;;;;;;;;;;5061463;28;20446;-83
2022/01/15 04:57:46;;;;;;;30.57;11.10;;;;;;;;;;5060435;28;20545;-83
2022/01/15 05:00:15;;;;;;;23.77;10.70;;;;;;;;;;5062690;28;20486;-83
2022/01/15 05:02:41;;;;;;;20.87;9.90;;;;;;;;;;5064037;28;20832;-82
2022/01/15 05:05:08;;;;;;;30.50;11.27;;;;;;;;;;5064981;28;20464;-83
2022/01/15 05:07:34;;;;;;;27.80;11.20;;;;;;;;;;5062622;28;20487;-81
2022/01/15 05:10:02;;;;;;;31.50;13.57;;;;;;;;;;5063383;28;20483;-83
2022/01/15 05:12:31;;;;;;;28.40;11.27;;;;;;;;;;5063411;28;20545;-81
2022/01/15 05:14:57;;;;;;;23.67;11.63;;;;;;;;;;5061455;28;20490;-81
2022/01/15 05:17:24;;;;;;;21.37;11.13;;;;;;;;;;5063989;28;20478;-83
2022/01/15 05:19:50;;;;;;;26.57;13.13;;;;;;;;;;5063906;28;20450;-84
2022/01/15 05:22:17;;;;;;;58.73;13.73;;;;;;;;;;5061854;28;20474;-81
2022/01/15 05:24:43;;;;;;;113.20;20.60;;;;;;;;;;5063096;28;20459;-82
2022/01/15 05:27:10;;;;;;;32.30;13.40;;;;;;;;;;5064852;28;20468;-82
2022/01/15 05:29:37;;;;;;;29.13;13.50;;;;;;;;;;5061942;28;20448;-83
2022/01/15 05:32:03;;;;;;;27.97;12.20;;;;;;;;;;5060089;28;20510;-81
2022/01/15 05:34:29;;;;;;;30.07;13.50;;;;;;;;;;5063040;28;20463;-82
2022/01/15 05:36:56;;;;;;;70.63;17.97;;;;;;;;;;5062639;28;20904;-82
2022/01/15 05:39:22;;;;;;;79.13;17.77;;;;;;;;;;5063396;28;20505;-83
2022/01/15 05:41:48;;;;;;;32.77;12.70;;;;;;;;;;5062778;28;21057;-83
2022/01/15 05:44:16;;;;;;;37.27;12.73;;;;;;;;;;5063752;28;20953;-82
2022/01/15 05:46:44;;;;;;;24.23;13.00;;;;;;;;;;5062330;28;20484;-79
2022/01/15 05:49:10;;;;;;;27.33;13.80;;;;;;;;;;5062404;28;20490;-82
2022/01/15 05:51:36;;;;;;;42.83;14.80;;;;;;;;;;5062502;28;20486;-79
2022/01/15 05:54:04;;;;;;;35.87;15.30;;;;;;;;;;5063910;28;20448;-82
2022/01/15 05:56:31;;;;;;;43.83;15.33;;;;;;;;;;5061553;28;20636;-82
2022/01/15 05:58:57;;;;;;;61.43;17.73;;;;;;;;;;5063454;28;20518;-82
2022/01/15 06:01:25;;;;;;;32.07;13.63;;;;;;;;;;5061818;28;20490;-82
2022/01/15 06:03:51;;;;;;;90.77;19.00;;;;;;;;;;5063231;28;20448;-82
2022/01/15 06:06:17;;;;;;;90.13;21.23;;;;;;;;;;5061149;28;20470;-82
2022/01/15 06:08:44;;;;;;;54.87;15.17;;;;;;;;;;5061010;28;20498;-80
2022/01/15 06:11:11;;;;;;;53.13;15.87;;;;;;;;;;5059269;28;20600;-82
2022/01/15 06:13:37;;;;;;;61.40;17.13;;;;;;;;;;5058499;28;20468;-82
2022/01/15 06:16:04;;;;;;;168.13;31.13;;;;;;;;;;5062426;28;20490;-82
2022/01/15 06:18:32;;;;;;;125.70;23.97;;;;;;;;;;5060889;28;20525;-85
2022/01/15 06:20:58;;;;;;;32.93;15.50;;;;;;;;;;5061574;28;20462;-81
2022/01/15 06:23:24;;;;;;;32.30;16.17;;;;;;;;;;5063576;28;20496;-84
2022/01/15 06:25:50;;;;;;;54.97;17.57;;;;;;;;;;5060087;28;20471;-82
2022/01/15 06:28:17;;;;;;;150.70;25.80;;;;;;;;;;5061483;28;20475;-84
2022/01/15 06:30:43;;;;;;;34.17;16.20;;;;;;;;;;5062494;28;20479;-81
2022/01/15 06:33:09;;;;;;;53.13;18.30;;;;;;;;;;5064412;28;20956;-84
2022/01/15 06:35:37;;;;;;;57.13;17.80;;;;;;;;;;5061938;28;20889;-84
2022/01/15 06:38:03;;;;;;;26.60;14.33;;;;;;;;;;5057027;28;20506;-78
2022/01/15 06:40:31;;;;;;;37.77;16.10;;;;;;;;;;5064186;28;20470;-82
2022/01/15 06:42:57;;;;;;;46.37;16.70;;;;;;;;;;5061593;28;20479;-81
2022/01/15 06:45:23;;;;;;;40.33;18.23;;;;;;;;;;5059818;28;20482;-81
2022/01/15 06:47:50;;;;;;;38.33;17.10;;;;;;;;;;5056116;28;20537;-81
2022/01/15 06:50:16;;;;;;;30.63;15.80;;;;;;;;;;5057895;28;20480;-80
2022/01/15 06:52:43;;;;;;;39.27;18.53;;;;;;;;;;5060450;28;20476;-82
2022/01/15 06:55:10;;;;;;;29.67;16.17;;;;;;;;;;5063166;28;20473;-83
2022/01/15 06:57:37;;;;;;;34.17;16.50;;;;;;;;;;5061919;28;20549;-81
2022/01/15 07:00:04;;;;;;;34.20;17.30;;;;;;;;;;5063389;28;20456;-82
2022/01/15 07:02:31;;;;;;;38.97;18.07;;;;;;;;;;5061179;28;20474;-81
2022/01/15 07:04:57;;;;;;;62.57;18.90;;;;;;;;;;5061628;28;20559;-82
2022/01/15 07:07:24;;;;;;;45.43;17.37;;;;;;;;;;5058243;28;20486;-82
2022/01/15 07:09:51;;;;;;;36.63;16.07;;;;;;;;;;5062058;28;20439;-84
2022/01/15 07:12:17;;;;;;;45.50;18.40;;;;;;;;;;5060420;28;20483;-82
2022/01/15 07:14:44;;;;;;;51.53;20.13;;;;;;;;;;5060651;28;20447;-81
2022/01/15 07:17:10;;;;;;;88.90;23.67;;;;;;;;;;5057649;28;20483;-83
2022/01/15 07:19:36;;;;;;;87.23;20.93;;;;;;;;;;5061061;28;20444;-83
2022/01/15 07:22:02;;;;;;;49.30;18.30;;;;;;;;;;5061007;28;20845;-85
2022/01/15 07:24:29;;;;;;;34.90;16.60;;;;;;;;;;5058788;28;20976;-83
2022/01/15 07:26:56;;;;;;;47.90;19.17;;;;;;;;;;5058661;28;20475;-83
2022/01/15 07:29:24;;;;;;;36.43;17.30;;;;;;;;;;5059975;28;20463;-85
2022/01/15 07:31:51;;;;;;;42.33;19.57;;;;;;;;;;5055244;28;20505;-82
2022/01/15 07:34:18;;;;;;;35.00;17.00;;;;;;;;;;5054075;28;20456;-81
2022/01/15 07:36:44;;;;;;;35.10;16.60;;;;;;;;;;5056510;28;21073;-83
2022/01/15 07:39:10;;;;;;;35.50;18.10;;;;;;;;;;5054791;28;20559;-84
2022/01/15 07:41:37;;;;;;;38.37;18.43;;;;;;;;;;5055291;28;20892;-82
2022/01/15 07:44:05;;;;;;;41.97;19.03;;;;;;;;;;5056986;28;20440;-83
2022/01/15 07:46:31;;;;;;;37.60;17.47;;;;;;;;;;5056177;28;20480;-83
2022/01/15 07:48:58;;;;;;;35.47;18.60;;;;;;;;;;5056925;28;20463;-83
2022/01/15 07:51:24;;;;;;;53.33;17.83;;;;;;;;;;5056431;28;21381;-82
2022/01/15 07:53:50;;;;;;;50.07;17.37;;;;;;;;;;5054896;28;22910;-83
2022/01/15 07:56:16;;;;;;;42.33;19.50;;;;;;;;;;5055759;28;20471;-83
2022/01/15 07:58:43;;;;;;;55.70;19.47;;;;;;;;;;5054371;28;20526;-82
2022/01/15 08:01:10;;;;;;;77.50;20.60;;;;;;;;;;5052726;28;20483;-83
2022/01/15 08:03:36;;;;;;;39.57;16.90;;;;;;;;;;5052365;28;20469;-81
2022/01/15 08:06:03;;;;;;;39.70;18.23;;;;;;;;;;5054408;28;20479;-83
2022/01/15 08:08:29;;;;;;;44.17;20.10;;;;;;;;;;5052745;28;20476;-83
2022/01/15 08:10:55;;;;;;;36.53;18.50;;;;;;;;;;5057356;28;20491;-82
2022/01/15 08:13:21;;;;;;;43.33;19.27;;;;;;;;;;5054447;28;20460;-83
2022/01/15 08:15:50;;;;;;;43.47;18.77;;;;;;;;;;5055258;28;20505;-83
2022/01/15 08:18:18;;;;;;;40.10;17.70;;;;;;;;;;5057554;28;20472;-81
2022/01/15 08:20:45;;;;;;;33.07;17.10;;;;;;;;;;5048869;28;20877;-83
2022/01/15 08:23:11;;;;;;;37.33;18.90;;;;;;;;;;5053545;28;20451;-82
2022/01/15 08:25:37;;;;;;;38.63;18.83;;;;;;;;;;5054391;28;20463;-82
2022/01/15 08:28:04;;;;;;;37.27;16.50;;;;;;;;;;5055937;28;20535;-82
2022/01/15 08:30:30;;;;;;;35.00;17.80;;;;;;;;;;5055881;28;20444;-83
2022/01/15 08:32:56;;;;;;;69.07;20.67;;;;;;;;;;5054698;28;20509;-83
2022/01/15 08:35:24;;;;;;;33.20;17.43;;;;;;;;;;5056970;28;20448;-83
2022/01/15 08:37:54;;;;;;;43.53;18.40;;;;;;;;;;5083656;22;20529;-84
2022/01/15 08:40:21;;;;;;;43.90;19.97;;;;;;;;;;5021153;28;20461;-85
2022/01/15 08:42:48;;;;;;;36.77;17.30;;;;;;;;;;5022940;28;20481;-84
2022/01/15 08:45:15;;;;;;;31.57;16.10;;;;;;;;;;5024197;28;20449;-84
2022/01/15 08:47:42;;;;;;;29.63;16.53;;;;;;;;;;5022103;28;20481;-84
2022/01/15 08:50:09;;;;;;;31.93;17.30;;;;;;;;;;5002721;28;20467;-85
2022/01/15 08:52:37;;;;;;;31.37;17.30;;;;;;;;;;5000512;28;20555;-85
2022/01/15 08:55:05;;;;;;;27.60;15.17;;;;;;;;;;5002425;28;20834;-85
2022/01/15 08:57:31;;;;;;;29.27;17.87;;;;;;;;;;5003935;28;20482;-85
2022/01/15 08:59:57;;;;;;;33.77;18.60;;;;;;;;;;5003693;28;20469;-85
2022/01/15 09:02:23;;;;;;;32.93;17.77;;;;;;;;;;5001192;28;20486;-85
2022/01/15 09:04:49;;;;;;;29.63;17.13;;;;;;;;;;5002715;28;20458;-85
2022/01/15 09:07:16;;;;;;;31.60;15.97;;;;;;;;;;5002496;28;20474;-85
2022/01/15 09:09:44;;;;;;;33.93;16.80;;;;;;;;;;5000227;28;20474;-85
2022/01/15 09:12:11;;;;;;;30.83;16.67;;;;;;;;;;5002005;28;20481;-85
2022/01/15 09:14:37;;;;;;;33.07;18.70;;;;;;;;;;4998638;28;20584;-85
2022/01/15 09:17:04;;;;;;;27.13;16.40;;;;;;;;;;5004461;28;20470;-85
2022/01/15 09:19:30;;;;;;;37.00;16.13;;;;;;;;;;5006861;28;20486;-85
2022/01/15 09:21:56;;;;;;;28.27;15.83;;;;;;;;;;5006371;28;20482;-85
2022/01/15 09:24:22;;;;;;;35.93;15.97;;;;;;;;;;5005404;28;20504;-85
2022/01/15 09:27:01;;;;;;;24.13;13.87;;;;;;;;;;5005456;28;20872;-85
2022/01/15 09:32:12;;;;;;;21.63;14.03;;;;;;;;;;5004479;28;21344;-85
2022/01/15 09:34:38;;;;;;;25.80;14.23;;;;;;;;;;5008680;28;20503;-85
2022/01/15 09:37:06;;;;;;;23.27;12.87;;;;;;;;;;5007370;28;20536;-85
2022/01/15 09:39:32;;;;;;;18.70;12.70;;;;;;;;;;5006227;28;20527;-85
2022/01/15 09:42:00;;;;;;;22.43;14.10;;;;;;;;;;5005064;28;20478;-85
2022/01/15 09:44:27;;;;;;;23.37;14.20;;;;;;;;;;5005774;28;20828;-85
2022/01/15 09:46:53;;;;;;;29.77;13.17;;;;;;;;;;5003584;28;20484;-85
2022/01/15 09:49:20;;;;;;;22.23;14.80;;;;;;;;;;5007485;28;20474;-85
2022/01/15 09:51:47;;;;;;;24.50;14.70;;;;;;;;;;5006562;28;20501;-85
2022/01/15 09:54:14;;;;;;;22.70;14.17;;;;;;;;;;5006410;28;20458;-85
2022/01/15 09:56:41;;;;;;;27.30;14.70;;;;;;;;;;5005558;28;20527;-85
2022/01/15 09:59:08;;;;;;;23.50;14.70;;;;;;;;;;5005648;28;20470;-85
2022/01/15 10:01:35;;;;;;;25.70;14.83;;;;;;;;;;5000698;28;20490;-86
2022/01/15 10:04:01;;;;;;;22.17;13.30;;;;;;;;;;4996836;28;20569;-86
2022/01/15 10:06:28;;;;;;;21.83;13.93;;;;;;;;;;5004910;28;20473;-86
2022/01/15 10:09:00;;;;;;;24.43;15.40;;;;;;;;;;5005779;28;20462;-86
2022/01/15 10:11:39;;;;;;;25.40;14.60;;;;;;;;;;5006263;28;20478;-86
2022/01/15 10:14:22;;;;;;;20.37;12.60;;;;;;;;;;5006283;28;20501;-86
2022/01/15 10:16:50;;;;;;;23.53;13.43;;;;;;;;;;5005510;28;20883;-86
2022/01/15 10:19:24;;;;;;;22.10;13.80;;;;;;;;;;5003535;28;20827;-86
2022/01/15 10:22:04;;;;;;;23.57;12.37;;;;;;;;;;5003869;28;20492;-85
2022/01/15 10:24:30;;;;;;;24.80;13.47;;;;;;;;;;5002474;28;20470;-86
2022/01/15 10:26:56;;;;;;;22.03;11.90;;;;;;;;;;5006593;28;20888;-86
2022/01/15 10:29:22;;;;;;;23.03;12.63;;;;;;;;;;5003518;28;21011;-86
2022/01/15 10:31:50;;;;;;;25.80;12.50;;;;;;;;;;5006378;28;20869;-85
2022/01/15 10:34:26;;;;;;;20.30;12.80;;;;;;;;;;5005536;28;21158;-86
2022/01/15 10:36:52;;;;;;;23.27;11.70;;;;;;;;;;5004803;28;20466;-86
2022/01/15 10:39:20;;;;;;;25.53;10.90;;;;;;;;;;5006896;28;20536;-86
2022/01/15 10:41:46;;;;;;;19.47;12.93;;;;;;;;;;5006568;28;20504;-85
2022/01/15 10:44:29;;;;;;;28.00;11.87;;;;;;;;;;5006069;28;20470;-86
2022/01/15 10:47:02;;;;;;;15.93;10.43;;;;;;;;;;5004472;28;20450;-86
2022/01/15 10:49:29;;;;;;;22.03;10.20;;;;;;;;;;5007247;28;20479;-86
2022/01/15 10:52:05;;;;;;;23.90;11.27;;;;;;;;;;5008723;28;20590;-86
2022/01/15 10:54:34;;;;;;;24.43;12.83;;;;;;;;;;5007573;28;20536;-86
2022/01/15 10:57:10;;;;;;;20.43;9.90;;;;;;;;;;5008671;28;20451;-86
2022/01/15 10:59:36;;;;;;;17.73;9.30;;;;;;;;;;5005018;28;20544;-86
2022/01/15 11:02:19;;;;;;;19.90;10.10;;;;;;;;;;5005958;28;20458;-86
2022/01/15 11:04:46;;;;;;;18.03;8.30;;;;;;;;;;5003988;28;20471;-86
2022/01/15 11:07:13;;;;;;;17.00;8.27;;;;;;;;;;5005636;28;20473;-86
2022/01/15 11:09:39;;;;;;;19.73;8.67;;;;;;;;;;5005029;28;20473;-86
2022/01/15 11:12:08;;;;;;;21.30;7.87;;;;;;;;;;5005244;28;20478;-86
2022/01/15 11:14:35;;;;;;;12.10;6.30;;;;;;;;;;5005597;28;20493;-86
2022/01/15 11:17:01;;;;;;;19.43;7.33;;;;;;;;;;5004079;28;20504;-86
2022/01/15 11:19:30;;;;;;;16.93;8.13;;;;;;;;;;5005207;28;20474;-86
2022/01/15 11:21:57;;;;;;;17.53;5.60;;;;;;;;;;5005639;28;20465;-85
2022/01/15 11:24:23;;;;;;;20.67;4.60;;;;;;;;;;5005411;28;20532;-86
2022/01/15 11:26:51;;;;;;;14.43;5.03;;;;;;;;;;5006601;28;20529;-86
2022/01/15 11:29:18;;;;;;;11.97;3.90;;;;;;;;;;5006005;28;20478;-86
2022/01/15 11:31:45;;;;;;;11.23;4.60;;;;;;;;;;5005850;28;20930;-86
2022/01/15 11:34:14;;;;;;;12.67;3.77;;;;;;;;;;5004995;28;20458;-86
2022/01/15 11:36:42;;;;;;;8.23;4.03;;;;;;;;;;5005207;28;20976;-86
2022/01/15 11:39:09;;;;;;;13.10;4.90;;;;;;;;;;5003937;28;20498;-85
2022/01/15 11:41:39;;;;;;;15.73;5.00;;;;;;;;;;5006494;28;20450;-86
2022/01/15 11:44:06;;;;;;;13.17;5.13;;;;;;;;;;5004773;28;20533;-86
2022/01/15 11:46:34;;;;;;;18.10;5.93;;;;;;;;;;5005631;28;20445;-86
2022/01/15 11:49:18;;;;;;;15.37;5.60;;;;;;;;;;5004422;28;20477;-86
2022/01/15 11:51:46;;;;;;;12.10;5.83;;;;;;;;;;5003770;28;20474;-86
2022/01/15 11:54:12;;;;;;;17.70;5.57;;;;;;;;;;5002867;28;20544;-86
2022/01/15 11:56:39;;;;;;;13.07;6.60;;;;;;;;;;5007161;28;20458;-86
2022/01/15 11:59:36;;;;;;;11.43;6.47;;;;;;;;;;5003331;28;20523;-86
2022/01/15 12:02:05;;;;;;;13.60;8.10;;;;;;;;;;5003767;28;20496;-86
2022/01/15 12:04:32;;;;;;;12.63;7.13;;;;;;;;;;5003390;28;20545;-84
2022/01/15 12:07:19;;;;;;;14.43;7.63;;;;;;;;;;5003069;28;20449;-85
2022/01/15 12:09:46;;;;;;;14.10;8.63;;;;;;;;;;5003489;28;20482;-86
2022/01/15 12:12:34;;;;;;;14.07;9.30;;;;;;;;;;5002289;28;20490;-86
2022/01/15 12:15:02;;;;;;;18.10;10.30;;;;;;;;;;5002331;28;20924;-85
2022/01/15 12:17:30;;;;;;;15.73;11.20;;;;;;;;;;5002584;28;20446;-85
2022/01/15 12:19:57;;;;;;;16.17;11.47;;;;;;;;;;5001415;28;20481;-85
2022/01/15 12:22:38;;;;;;;17.53;14.23;;;;;;;;;;5004656;28;20943;-85
2022/01/15 12:25:05;;;;;;;19.53;11.37;;;;;;;;;;5002789;28;20481;-85
2022/01/15 12:27:32;;;;;;;18.70;13.43;;;;;;;;;;5002111;28;20466;-85
2022/01/15 12:30:00;;;;;;;14.90;12.23;;;;;;;;;;5002025;28;20473;-85
2022/01/15 12:32:28;;;;;;;12.17;10.83;;;;;;;;;;5002401;28;20528;-86
2022/01/15 12:34:54;;;;;;;21.97;11.47;;;;;;;;;;5001950;28;21018;-85
2022/01/15 12:37:21;;;;;;;18.80;11.67;;;;;;;;;;5001657;28;20449;-85
2022/01/15 12:39:49;;;;;;;11.33;9.17;;;;;;;;;;5002912;28;20478;-84
2022/01/15 12:42:17;;;;;;;15.67;9.47;;;;;;;;;;5000499;28;20477;-85
2022/01/15 12:44:44;;;;;;;14.40;7.73;;;;;;;;;;5002834;28;20502;-84
2022/01/15 12:47:10;;;;;;;9.87;7.20;;;;;;;;;;5001494;28;20446;-85
2022/01/15 12:49:37;;;;;;;12.43;8.80;;;;;;;;;;5000548;28;20509;-85
2022/01/15 12:52:14;;;;;;;11.17;8.60;;;;;;;;;;5004025;28;20544;-85
2022/01/15 12:54:40;;;;;;;10.67;7.13;;;;;;;;;;5004749;28;20466;-85
2022/01/15 12:57:08;;;;;;;11.63;6.47;;;;;;;;;;5002536;28;20465;-85
2022/01/15 12:59:35;;;;;;;15.13;7.37;;;;;;;;;;5004536;28;20502;-85
2022/01/15 13:02:02;;;;;;;14.37;7.77;;;;;;;;;;5004325;28;21033;-85
2022/01/15 13:04:28;;;;;;;7.90;6.33;;;;;;;;;;5005387;28;20465;-85
2022/01/15 13:06:58;;;;;;;11.87;7.03;;;;;;;;;;5004382;28;20541;-85
2022/01/15 13:09:38;;;;;;;10.60;6.60;;;;;;;;;;5003831;28;20478;-85
2022/01/15 13:12:06;;;;;;;9.30;5.80;;;;;;;;;;5004142;28;20529;-84
2022/01/15 13:14:37;;;;;;;10.93;6.30;;;;;;;;;;5003625;28;20484;-85
2022/01/15 13:17:04;;;;;;;9.90;6.30;;;;;;;;;;5006080;28;20827;-84
2022/01/15 13:19:36;;;;;;;8.27;5.60;;;;;;;;;;5004044;28;20477;-85
2022/01/15 13:22:02;;;;;;;14.10;5.60;;;;;;;;;;5003361;28;20453;-84
2022/01/15 13:24:29;;;;;;;8.87;4.80;;;;;;;;;;5003130;28;20466;-84
2022/01/15 13:26:57;;;;;;;12.63;6.20;;;;;;;;;;5009367;28;20457;-84
2022/01/15 13:29:36;;;;;;;8.40;5.20;;;;;;;;;;5006856;28;20460;-84
2022/01/15 13:32:06;;;;;;;11.00;5.97;;;;;;;;;;5008678;28;20453;-84
2022/01/15 13:34:34;;;;;;;15.27;6.17;;;;;;;;;;5007429;28;20525;-85
2022/01/15 13:37:07;;;;;;;9.87;5.23;;;;;;;;;;5007477;28;20960;-85
2022/01/15 13:39:34;;;;;;;8.10;5.97;;;;;;;;;;5007751;28;20469;-84
2022/01/15 13:42:00;;;;;;;9.50;6.20;;;;;;;;;;5006494;28;20457;-85
2022/01/15 13:44:31;;;;;;;12.23;6.60;;;;;;;;;;5005571;28;21018;-85
2022/01/15 13:47:05;;;;;;;9.37;6.27;;;;;;;;;;5006216;28;20872;-84
2022/01/15 13:53:04;;;;;;;9.83;6.40;;;;;;;;;;5007221;28;20904;-84
2022/01/15 13:55:11;;;;;;;12.40;7.43;;;;;;;;;;5005651;28;20465;-85
2022/01/15 13:57:38;;;;;;;8.73;6.97;;;;;;;;;;5008196;28;20454;-85
2022/01/15 14:00:05;;;;;;;19.23;8.63;;;;;;;;;;5006709;28;20497;-85
2022/01/15 14:02:32;;;;;;;14.40;7.10;;;;;;;;;;5005364;28;20439;-85
2022/01/15 14:05:10;;;;;;;8.87;7.40;;;;;;;;;;5007447;28;20876;-84
2022/01/15 14:07:36;;;;;;;13.93;6.90;;;;;;;;;;5007360;28;20485;-86
2022/01/15 14:10:07;;;;;;;12.87;8.27;;;;;;;;;;5004814;28;20612;-85
2022/01/15 14:12:34;;;;;;;11.63;7.53;;;;;;;;;;5006077;28;20489;-85
2022/01/15 14:15:03;;;;;;;15.13;8.43;;;;;;;;;;5006478;28;20484;-86
2022/01/15 14:17:30;;;;;;;14.60;7.73;;;;;;;;;;5006130;28;20845;-86
2022/01/15 14:20:15;;;;;;;14.27;9.33;;;;;;;;;;5005260;28;20491;-86
2022/01/15 14:22:44;;;;;;;9.60;7.23;;;;;;;;;;5006020;28;20478;-85
2022/01/15 14:25:12;;;;;;;11.90;7.30;;;;;;;;;;5005301;28;20567;-86
2022/01/15 14:27:38;;;;;;;14.07;8.40;;;;;;;;;;5002899;28;20510;-85
2022/01/15 14:30:06;;;;;;;13.10;8.10;;;;;;;;;;5006149;28;20495;-85
2022/01/15 14:32:32;;;;;;;11.37;7.90;;;;;;;;;;5009139;28;20455;-85
2022/01/15 14:34:59;;;;;;;16.53;8.37;;;;;;;;;;5008263;28;20483;-86
2022/01/15 14:37:26;;;;;;;13.73;9.50;;;;;;;;;;5008288;28;20446;-86
2022/01/15 14:39:54;;;;;;;20.93;10.43;;;;;;;;;;5048625;22;20472;-82
2022/01/15 14:42:20;;;;;;;33.13;12.10;;;;;;;;;;5039872;28;20544;-84
2022/01/15 14:44:46;;;;;;;24.50;10.60;;;;;;;;;;5038476;28;20468;-82
2022/01/15 14:47:12;;;;;;;24.57;12.00;;;;;;;;;;5039247;28;20894;-83
2022/01/15 14:49:39;;;;;;;18.03;9.50;;;;;;;;;;5049860;28;20854;-84